Time;durP1;ratioP1;P1;durP2;ratioP2;P2;SDS_P1;SDS_P2;PMS_P1;PMS_P2;Temp;Humidity;BMP_temperature;BMP_pressure;BME280_temperature;BME280_humidity;BME280_pressure;Samples;Min_cycle;Max_cycle;Signal;HPM_P1;HPM_P2
2022/09/02 00:01:37;;;;;;;1.80;0.55;;;22.50;60.50;;;;;;5095205;28;20044;-60
2022/09/02 00:04:05;;;;;;;3.47;0.77;;;22.50;60.50;;;;;;5095409;28;20047;-61
2022/09/02 00:06:31;;;;;;;2.35;0.68;;;22.50;60.50;;;;;;5094258;28;20075;-61
2022/09/02 00:08:56;;;;;;;1.05;0.47;;;22.50;60.40;;;;;;5095440;28;20071;-61
2022/09/02 00:11:24;;;;;;;1.63;0.60;;;22.50;60.50;;;;;;5095269;28;20401;-61
2022/09/02 00:13:50;;;;;;;2.17;0.82;;;22.50;60.40;;;;;;5093256;28;20036;-61
2022/09/02 00:16:16;;;;;;;2.75;0.55;;;22.50;60.50;;;;;;5095093;28;20036;-61
2022/09/02 00:18:43;;;;;;;2.63;0.65;;;22.50;60.40;;;;;;5095475;28;20062;-61
2022/09/02 00:21:10;;;;;;;2.47;0.70;;;22.50;60.40;;;;;;5094585;28;20055;-61
2022/09/02 00:23:37;;;;;;;2.00;0.50;;;22.50;60.40;;;;;;5095017;28;20044;-61
2022/09/02 00:26:03;;;;;;;1.55;0.52;;;22.40;60.30;;;;;;5094693;28;20354;-61
2022/09/02 00:28:28;;;;;;;1.10;0.60;;;22.50;60.30;;;;;;5093672;28;20047;-61
2022/09/02 00:30:54;;;;;;;1.73;0.60;;;22.40;60.30;;;;;;5094958;28;20222;-61
2022/09/02 00:33:20;;;;;;;2.35;0.60;;;22.40;60.30;;;;;;5093757;28;20036;-61
2022/09/02 00:35:45;;;;;;;2.30;0.60;;;22.40;60.20;;;;;;5094848;28;20051;-61
2022/09/02 00:38:11;;;;;;;1.88;0.50;;;22.40;60.20;;;;;;5094870;28;20051;-61
2022/09/02 00:40:37;;;;;;;2.58;0.88;;;22.40;60.20;;;;;;5093754;28;20572;-61
2022/09/02 00:43:07;;;;;;;1.95;0.40;;;22.40;60.20;;;;;;5094559;28;20044;-61
2022/09/02 00:45:32;;;;;;;2.00;0.55;;;22.40;60.20;;;;;;5094342;28;20040;-61
2022/09/02 00:47:58;;;;;;;1.40;0.55;;;22.40;60.20;;;;;;5094082;28;20134;-61
2022/09/02 00:50:25;;;;;;;1.67;0.60;;;22.40;60.20;;;;;;5094007;28;20048;-61
2022/09/02 00:52:52;;;;;;;2.05;0.60;;;22.40;60.10;;;;;;5076631;28;20482;-61
2022/09/02 00:55:26;;;;;;;1.52;0.47;;;22.40;60.10;;;;;;5092447;28;20048;-61
2022/09/02 00:58:03;;;;;;;1.40;0.60;;;22.40;60.10;;;;;;5093491;28;20036;-61
2022/09/02 01:00:32;;;;;;;3.07;0.70;;;22.30;60.00;;;;;;5092823;28;20062;-61
2022/09/02 01:03:00;;;;;;;2.03;0.52;;;22.40;60.00;;;;;;5093520;28;20035;-61
2022/09/02 01:05:28;;;;;;;1.05;0.47;;;22.40;60.00;;;;;;5094209;28;20521;-61
2022/09/02 01:07:54;;;;;;;1.42;0.55;;;22.30;60.00;;;;;;5094435;28;20048;-61
2022/09/02 01:10:25;;;;;;;2.38;0.50;;;22.30;60.00;;;;;;5093400;28;20139;-61
2022/09/02 01:12:55;;;;;;;1.35;0.60;;;22.30;60.00;;;;;;5093964;28;20119;-61
2022/09/02 01:15:21;;;;;;;2.28;0.50;;;22.30;60.50;;;;;;5093132;28;20115;-61
2022/09/02 01:17:48;;;;;;;1.38;0.50;;;22.30;59.90;;;;;;5094255;28;20131;-62
2022/09/02 01:20:15;;;;;;;1.27;0.60;;;22.30;59.90;;;;;;5092903;28;20040;-61
2022/09/02 01:22:41;;;;;;;1.35;0.60;;;22.30;59.90;;;;;;5093165;28;20048;-61
2022/09/02 01:25:11;;;;;;;1.48;0.50;;;22.30;59.90;;;;;;5093633;28;20055;-61
2022/09/02 01:27:36;;;;;;;1.20;0.55;;;22.30;59.90;;;;;;5093979;28;20036;-61
2022/09/02 01:30:03;;;;;;;2.53;0.63;;;22.30;59.90;;;;;;5092897;28;20450;-61
2022/09/02 01:32:29;;;;;;;0.90;0.43;;;22.30;59.80;;;;;;5093670;28;20130;-61
2022/09/02 01:34:54;;;;;;;3.22;0.70;;;22.30;59.80;;;;;;5093472;28;20745;-62
2022/09/02 01:37:20;;;;;;;0.70;0.43;;;22.30;59.80;;;;;;5092781;28;20039;-61
2022/09/02 01:39:45;;;;;;;1.20;0.47;;;22.30;59.80;;;;;;5093844;28;20036;-61
2022/09/02 01:42:11;;;;;;;1.42;0.65;;;22.30;59.80;;;;;;5093548;28;20100;-61
2022/09/02 01:44:42;;;;;;;1.17;0.50;;;22.30;59.80;;;;;;5091040;28;20476;-61
2022/09/02 01:47:10;;;;;;;3.03;0.50;;;22.30;59.80;;;;;;5093636;28;20413;-61
2022/09/02 01:49:35;;;;;;;2.23;0.50;;;22.20;59.70;;;;;;5093008;28;20491;-61
2022/09/02 01:52:01;;;;;;;1.65;0.60;;;22.30;59.70;;;;;;5092636;28;20047;-61
2022/09/02 01:54:26;;;;;;;1.58;0.50;;;22.20;59.70;;;;;;5093288;28;20475;-61
2022/09/02 01:56:52;;;;;;;1.13;0.52;;;22.30;59.80;;;;;;5093176;28;20078;-61
2022/09/02 01:59:19;;;;;;;0.82;0.57;;;22.30;59.70;;;;;;5092291;28;20047;-61
2022/09/02 02:01:45;;;;;;;0.95;0.47;;;22.20;59.60;;;;;;5092251;28;20044;-61
2022/09/02 02:04:11;;;;;;;1.08;0.40;;;22.20;59.60;;;;;;5093135;28;20341;-61
2022/09/02 02:06:42;;;;;;;1.88;0.45;;;22.20;59.60;;;;;;5091584;28;20039;-61
2022/09/02 02:09:09;;;;;;;1.33;0.65;;;22.20;59.60;;;;;;5093095;28;20547;-61
2022/09/02 02:11:34;;;;;;;2.47;0.52;;;22.20;59.60;;;;;;5091923;28;20112;-61
2022/09/02 02:14:00;;;;;;;1.48;0.70;;;22.20;59.60;;;;;;5092793;28;20487;-61
2022/09/02 02:16:25;;;;;;;0.90;0.43;;;22.20;59.60;;;;;;5091428;28;20043;-61
2022/09/02 02:18:51;;;;;;;0.80;0.40;;;22.20;59.60;;;;;;5091960;28;20089;-61
2022/09/02 02:21:16;;;;;;;1.00;0.40;;;22.20;59.60;;;;;;5092517;28;20048;-61
2022/09/02 02:23:42;;;;;;;0.77;0.40;;;22.20;59.60;;;;;;5125673;27;20089;-61
2022/09/02 02:26:07;;;;;;;2.35;0.65;;;22.20;59.60;;;;;;5091901;28;20126;-61
2022/09/02 02:28:33;;;;;;;1.02;0.43;;;22.20;59.60;;;;;;5092411;28;20109;-61
2022/09/02 02:30:59;;;;;;;0.88;0.43;;;22.20;59.60;;;;;;5092643;28;20051;-61
2022/09/02 02:33:27;;;;;;;1.13;0.50;;;22.20;60.20;;;;;;5091734;28;20046;-61
2022/09/02 02:35:53;;;;;;;0.85;0.40;;;22.20;59.60;;;;;;5092996;28;20048;-61
2022/09/02 02:38:19;;;;;;;1.75;0.60;;;22.20;59.60;;;;;;5092580;28;20059;-61
2022/09/02 02:40:46;;;;;;;1.63;0.45;;;22.10;59.50;;;;;;5091556;28;20056;-61
2022/09/02 02:43:11;;;;;;;1.73;0.50;;;22.10;59.50;;;;;;5092865;28;20115;-61
2022/09/02 02:45:37;;;;;;;0.90;0.35;;;22.20;59.60;;;;;;5092275;28;20044;-61
2022/09/02 02:48:03;;;;;;;1.73;0.40;;;22.20;59.60;;;;;;5091872;28;20040;-61
2022/09/02 02:50:29;;;;;;;0.90;0.40;;;22.10;59.50;;;;;;5093410;28;20109;-61
2022/09/02 02:52:55;;;;;;;1.10;0.30;;;22.10;59.50;;;;;;5099278;28;20074;-61
2022/09/02 02:55:22;;;;;;;1.42;0.50;;;22.10;59.50;;;;;;5097937;28;20097;-61
2022/09/02 02:57:47;;;;;;;1.27;0.50;;;22.10;59.50;;;;;;5099470;28;20109;-61
2022/09/02 03:00:18;;;;;;;1.17;0.45;;;22.10;59.50;;;;;;5099434;28;20121;-61
2022/09/02 03:02:44;;;;;;;1.23;0.40;;;22.10;59.50;;;;;;5097531;28;20580;-61
2022/09/02 03:05:10;;;;;;;1.27;0.40;;;22.10;59.50;;;;;;5099172;28;20126;-61
2022/09/02 03:07:35;;;;;;;0.82;0.30;;;22.10;59.50;;;;;;5098859;28;20035;-61
2022/09/02 03:10:02;;;;;;;1.42;0.40;;;22.10;59.50;;;;;;5098255;28;20548;-61
2022/09/02 03:12:28;;;;;;;0.60;0.40;;;22.10;59.50;;;;;;5099031;28;20500;-61
2022/09/02 03:14:54;;;;;;;2.33;0.50;;;22.10;59.50;;;;;;5098400;28;20048;-61
2022/09/02 03:17:19;;;;;;;1.15;0.40;;;22.10;59.50;;;;;;5098711;28;20040;-61
2022/09/02 03:19:45;;;;;;;0.90;0.60;;;22.10;59.50;;;;;;5098840;28;20044;-61
2022/09/02 03:22:12;;;;;;;1.00;0.30;;;22.10;59.50;;;;;;5098305;28;20036;-61
2022/09/02 03:24:37;;;;;;;0.65;0.40;;;22.10;59.50;;;;;;5098682;28;20044;-61
2022/09/02 03:27:03;;;;;;;0.63;0.40;;;22.10;59.50;;;;;;5099105;28;20052;-61
2022/09/02 03:29:29;;;;;;;0.98;0.40;;;22.10;59.40;;;;;;5097661;28;20043;-61
2022/09/02 03:31:54;;;;;;;1.30;0.63;;;22.10;59.40;;;;;;5097911;28;20530;-61
2022/09/02 03:34:20;;;;;;;0.60;0.30;;;22.00;59.40;;;;;;5098514;28;20052;-61
2022/09/02 03:36:45;;;;;;;1.25;0.60;;;22.00;59.30;;;;;;5098290;28;20074;-61
2022/09/02 03:39:12;;;;;;;0.65;0.40;;;22.00;59.30;;;;;;5099034;28;20050;-61
2022/09/02 03:41:40;;;;;;;1.50;0.60;;;22.00;59.40;;;;;;5098714;28;20051;-61
2022/09/02 03:44:06;;;;;;;1.67;0.40;;;22.10;59.40;;;;;;5098232;28;20127;-61
2022/09/02 03:46:31;;;;;;;0.85;0.40;;;22.00;59.40;;;;;;5096953;28;20127;-61
2022/09/02 03:48:57;;;;;;;0.47;0.30;;;22.00;59.40;;;;;;5098772;28;20043;-61
2022/09/02 03:51:22;;;;;;;0.50;0.30;;;22.00;59.40;;;;;;5097946;28;20036;-61
2022/09/02 03:53:48;;;;;;;0.68;0.30;;;22.00;59.40;;;;;;5098914;28;20028;-61
2022/09/02 03:56:14;;;;;;;0.88;0.40;;;22.00;59.50;;;;;;5098336;28;20395;-61
2022/09/02 03:58:41;;;;;;;1.65;0.50;;;22.00;59.40;;;;;;5097986;28;20151;-61
2022/09/02 04:01:06;;;;;;;1.35;0.40;;;22.00;59.40;;;;;;5095108;28;20047;-61
2022/09/02 04:03:32;;;;;;;0.85;0.40;;;22.00;59.40;;;;;;5087165;28;20497;-61
2022/09/02 04:05:57;;;;;;;0.90;0.40;;;22.00;59.40;;;;;;5094221;28;20073;-61
2022/09/02 04:08:23;;;;;;;0.98;0.50;;;22.00;59.40;;;;;;5095076;28;20408;-61
2022/09/02 04:10:49;;;;;;;1.13;0.45;;;22.00;59.40;;;;;;5095425;28;20040;-61
2022/09/02 04:13:15;;;;;;;0.60;0.40;;;22.00;59.40;;;;;;5094299;28;20032;-61
2022/09/02 04:15:46;;;;;;;0.82;0.40;;;22.00;59.40;;;;;;5095144;28;20044;-61
2022/09/02 04:18:12;;;;;;;1.60;0.40;;;22.00;59.40;;;;;;5094665;28;20105;-61
2022/09/02 04:20:38;;;;;;;1.02;0.40;;;21.90;59.30;;;;;;5094770;28;20406;-61
2022/09/02 04:23:04;;;;;;;1.23;0.40;;;21.90;59.40;;;;;;5094783;28;20047;-61
2022/09/02 04:25:30;;;;;;;1.02;0.35;;;22.00;59.40;;;;;;5093959;28;20113;-61
2022/09/02 04:27:56;;;;;;;1.58;0.50;;;21.90;59.40;;;;;;5094895;28;20050;-61
2022/09/02 04:30:24;;;;;;;0.40;0.30;;;22.00;59.40;;;;;;5094812;28;20040;-61
2022/09/02 04:32:50;;;;;;;1.95;0.40;;;22.00;59.40;;;;;;5094412;28;20044;-61
2022/09/02 04:35:16;;;;;;;0.63;0.35;;;22.00;59.40;;;;;;5094307;28;20481;-61
2022/09/02 04:37:41;;;;;;;0.70;0.40;;;21.90;59.30;;;;;;5094710;28;20052;-61
2022/09/02 04:40:07;;;;;;;0.93;0.40;;;21.90;59.40;;;;;;5094250;28;20098;-61
2022/09/02 04:42:33;;;;;;;0.43;0.32;;;21.90;59.40;;;;;;5094620;28;20052;-61
2022/09/02 04:44:58;;;;;;;0.50;0.40;;;21.90;59.40;;;;;;5094272;28;20044;-61
2022/09/02 04:47:25;;;;;;;1.08;0.40;;;21.90;59.40;;;;;;5093707;28;20552;-61
2022/09/02 04:49:50;;;;;;;0.50;0.40;;;21.90;59.40;;;;;;5094569;28;20071;-61
2022/09/02 04:52:16;;;;;;;1.05;0.40;;;21.90;59.40;;;;;;5094415;28;20500;-61
2022/09/02 04:54:42;;;;;;;1.13;0.40;;;21.90;59.40;;;;;;5093733;28;20487;-61
2022/09/02 04:57:07;;;;;;;0.75;0.32;;;21.90;59.40;;;;;;5094376;28;20135;-61
2022/09/02 04:59:35;;;;;;;1.67;0.40;;;21.90;59.40;;;;;;5094252;28;20084;-61
2022/09/02 05:02:01;;;;;;;0.50;0.35;;;21.90;59.40;;;;;;5093598;28;20085;-61
2022/09/02 05:04:27;;;;;;;0.85;0.32;;;21.90;59.40;;;;;;5092755;28;20059;-61
2022/09/02 05:06:53;;;;;;;0.40;0.30;;;21.90;59.40;;;;;;5094011;28;20044;-61
2022/09/02 05:09:20;;;;;;;0.90;0.40;;;21.90;59.40;;;;;;5093155;28;20419;-61
2022/09/02 05:11:47;;;;;;;0.50;0.30;;;21.90;59.40;;;;;;5094050;28;20048;-61
2022/09/02 05:14:14;;;;;;;1.07;0.40;;;21.90;59.40;;;;;;5093935;28;20047;-61
2022/09/02 05:16:41;;;;;;;1.25;0.43;;;21.90;59.40;;;;;;5093270;28;20710;-61
2022/09/02 05:19:09;;;;;;;1.15;0.50;;;21.90;59.50;;;;;;5093855;28;20445;-61
2022/09/02 05:21:38;;;;;;;0.63;0.32;;;21.80;59.30;;;;;;5093146;28;20051;-61
2022/09/02 05:24:04;;;;;;;0.47;0.40;;;21.80;59.40;;;;;;5093966;28;20043;-61
2022/09/02 05:26:32;;;;;;;0.80;0.43;;;21.80;59.30;;;;;;5093465;28;20101;-61
2022/09/02 05:28:59;;;;;;;0.90;0.50;;;21.80;59.30;;;;;;5093021;28;20093;-61
2022/09/02 05:31:26;;;;;;;0.93;0.40;;;21.80;59.40;;;;;;5093540;28;20075;-61
2022/09/02 05:33:52;;;;;;;1.17;0.30;;;21.80;59.40;;;;;;5093559;28;20056;-61
2022/09/02 05:36:19;;;;;;;0.60;0.40;;;21.80;59.40;;;;;;5092885;28;20384;-61
2022/09/02 05:38:45;;;;;;;0.70;0.30;;;21.80;59.40;;;;;;5093688;28;20488;-61
2022/09/02 05:41:14;;;;;;;1.00;0.50;;;21.80;59.40;;;;;;5093507;28;20052;-61
2022/09/02 05:43:41;;;;;;;1.05;0.40;;;21.80;59.40;;;;;;5092889;28;20114;-61
2022/09/02 05:46:07;;;;;;;1.27;0.50;;;21.80;59.40;;;;;;5091837;28;20441;-61
2022/09/02 05:51:20;;;;;;;1.23;0.50;;;21.80;59.40;;;;;;5092697;28;20040;-61
2022/09/02 05:53:46;;;;;;;0.57;0.40;;;21.80;59.40;;;;;;5093598;28;20040;-61
2022/09/02 05:56:12;;;;;;;1.20;0.30;;;21.80;59.40;;;;;;5093240;28;20044;-61
2022/09/02 05:58:37;;;;;;;1.20;0.52;;;21.80;59.40;;;;;;5092122;28;20048;-61
2022/09/02 06:01:11;;;;;;;0.90;0.40;;;21.80;59.40;;;;;;5092981;28;20040;-61
2022/09/02 06:03:37;;;;;;;1.10;0.50;;;21.80;59.40;;;;;;5093067;28;20170;-64
2022/09/02 06:06:02;;;;;;;0.80;0.43;;;21.80;59.40;;;;;;5091238;28;20071;-61
2022/09/02 06:08:28;;;;;;;1.90;0.50;;;21.80;59.30;;;;;;5091523;28;20063;-62
2022/09/02 06:10:54;;;;;;;1.38;0.50;;;21.80;59.20;;;;;;5092519;28;20048;-62
2022/09/02 06:13:21;;;;;;;3.60;0.60;;;21.80;59.20;;;;;;5092466;28;20047;-62
2022/09/02 06:15:47;;;;;;;1.08;0.47;;;21.80;59.20;;;;;;5093189;28;20075;-62
2022/09/02 06:18:13;;;;;;;2.20;0.50;;;21.80;59.20;;;;;;5092335;28;20043;-62
2022/09/02 06:20:43;;;;;;;0.98;0.50;;;21.80;59.30;;;;;;5092856;28;20044;-62
2022/09/02 06:23:08;;;;;;;2.25;0.60;;;21.80;59.30;;;;;;5092774;28;20492;-62
2022/09/02 06:25:38;;;;;;;10.23;0.70;;;21.90;59.40;;;;;;5090065;28;20076;-62
2022/09/02 06:28:03;;;;;;;3.47;0.68;;;21.90;59.40;;;;;;5092815;28;20040;-62
2022/09/02 06:30:29;;;;;;;2.08;0.38;;;21.90;59.40;;;;;;5092596;28;20058;-62
2022/09/02 06:32:54;;;;;;;1.88;0.70;;;21.90;59.50;;;;;;5091902;28;20050;-61
2022/09/02 06:35:21;;;;;;;1.55;0.60;;;21.90;59.70;;;;;;5092107;28;20071;-65
2022/09/02 06:37:46;;;;;;;6.10;0.80;;;21.90;59.70;;;;;;5092249;28;20415;-62
2022/09/02 06:40:13;;;;;;;3.00;0.52;;;21.90;59.70;;;;;;5092152;28;20046;-63
2022/09/02 06:42:39;;;;;;;3.28;0.50;;;21.90;59.80;;;;;;5092178;28;20072;-62
2022/09/02 06:45:05;;;;;;;1.98;0.60;;;21.90;59.90;;;;;;5091902;28;20142;-63
2022/09/02 06:47:31;;;;;;;7.95;0.60;;;21.90;59.80;;;;;;5089692;28;20475;-62
2022/09/02 06:49:57;;;;;;;2.35;0.60;;;22.00;60.00;;;;;;5092380;28;20097;-63
2022/09/02 06:52:22;;;;;;;2.72;0.57;;;22.00;60.00;;;;;;5092301;28;20538;-64
2022/09/02 06:54:49;;;;;;;1.88;0.60;;;21.90;60.00;;;;;;5091390;28;20131;-63
2022/09/02 06:57:15;;;;;;;3.10;0.60;;;22.00;60.10;;;;;;5091922;28;20117;-63
2022/09/02 06:59:41;;;;;;;1.25;0.60;;;22.00;60.10;;;;;;5092262;28;20438;-63
2022/09/02 07:02:06;;;;;;;3.10;0.60;;;22.00;60.10;;;;;;5090721;28;20056;-62
2022/09/02 07:07:16;;;;;;;1.23;0.50;;;22.10;60.30;;;;;;5091612;28;20044;-63
2022/09/02 07:09:41;;;;;;;1.65;0.50;;;22.00;60.10;;;;;;5092176;28;20131;-62
2022/09/02 07:12:07;;;;;;;3.15;0.93;;;22.00;60.10;;;;;;5092463;28;20064;-63
2022/09/02 07:14:37;;;;;;;1.10;0.52;;;22.10;60.00;;;;;;5091436;28;20742;-63
2022/09/02 07:17:03;;;;;;;1.23;0.60;;;22.10;60.00;;;;;;5092139;28;20032;-63
2022/09/02 07:19:29;;;;;;;2.67;0.50;;;22.00;59.90;;;;;;5091892;28;20587;-62
2022/09/02 07:21:54;;;;;;;2.22;0.65;;;22.10;59.90;;;;;;5091338;28;20051;-62
2022/09/02 07:24:20;;;;;;;3.25;0.60;;;22.10;60.00;;;;;;5091993;28;20048;-62
2022/09/02 07:26:46;;;;;;;4.30;1.58;;;22.10;60.00;;;;;;5092210;28;20059;-62
2022/09/02 07:29:11;;;;;;;12.63;0.65;;;22.10;60.00;;;;;;5091601;28;20039;-64
2022/09/02 07:31:38;;;;;;;1.45;0.57;;;22.10;60.00;;;;;;5091831;28;20178;-64
2022/09/02 07:34:05;;;;;;;5.77;0.60;;;22.10;60.50;;;;;;5092166;28;20063;-64
2022/09/02 07:36:31;;;;;;;3.15;0.60;;;22.10;59.70;;;;;;5091552;28;20032;-64
2022/09/02 07:38:56;;;;;;;3.78;0.60;;;22.10;59.50;;;;;;5095639;28;20420;-63
2022/09/02 07:41:22;;;;;;;4.40;0.70;;;22.10;59.10;;;;;;5095392;28;20384;-62
2022/09/02 07:43:48;;;;;;;5.65;0.52;;;22.10;59.00;;;;;;5095176;28;20094;-61
2022/09/02 07:46:13;;;;;;;3.78;0.70;;;22.10;58.80;;;;;;5095758;28;20044;-63
2022/09/02 07:48:40;;;;;;;3.22;0.65;;;22.10;58.70;;;;;;5095819;28;20052;-63
2022/09/02 07:51:07;;;;;;;3.42;0.82;;;22.20;58.80;;;;;;5094921;28;20534;-63
2022/09/02 07:53:33;;;;;;;3.50;0.70;;;22.20;58.90;;;;;;5095360;28;20036;-63
2022/09/02 07:55:59;;;;;;;2.92;0.68;;;22.20;58.90;;;;;;5095955;28;20118;-63
2022/09/02 07:58:25;;;;;;;5.28;0.88;;;22.20;59.00;;;;;;5094134;28;20464;-62
2022/09/02 08:00:51;;;;;;;2.42;0.50;;;22.20;59.00;;;;;;5095344;28;20055;-62
2022/09/02 08:03:17;;;;;;;1.60;0.57;;;22.20;59.00;;;;;;5094441;28;20044;-63
2022/09/02 08:05:43;;;;;;;4.53;0.60;;;22.30;59.00;;;;;;5095340;28;20556;-63
2022/09/02 08:08:09;;;;;;;4.22;1.45;;;22.30;59.00;;;;;;5095458;28;20055;-63
2022/09/02 08:10:37;;;;;;;3.08;0.80;;;22.30;59.00;;;;;;5094645;28;20040;-63
2022/09/02 08:13:05;;;;;;;4.10;0.60;;;22.30;59.00;;;;;;5095195;28;20032;-63
2022/09/02 08:15:30;;;;;;;2.22;0.70;;;22.30;59.00;;;;;;5095293;28;20082;-63
2022/09/02 08:17:56;;;;;;;1.52;0.68;;;22.30;59.00;;;;;;5094477;28;20062;-63
2022/09/02 08:20:22;;;;;;;3.47;0.82;;;22.40;59.10;;;;;;5094808;28;20036;-62
2022/09/02 08:22:48;;;;;;;2.17;0.50;;;22.40;59.10;;;;;;5095341;28;20051;-63
2022/09/02 08:25:14;;;;;;;2.35;0.50;;;22.40;59.10;;;;;;5094119;28;20055;-63
2022/09/02 08:27:40;;;;;;;4.75;0.70;;;22.40;59.10;;;;;;5093911;28;20105;-62
2022/09/02 08:30:08;;;;;;;2.35;0.73;;;22.50;59.20;;;;;;5095310;28;20079;-63
2022/09/02 08:32:34;;;;;;;2.17;0.57;;;22.50;59.20;;;;;;5094271;28;20048;-63
2022/09/02 08:35:01;;;;;;;2.53;0.60;;;22.50;59.20;;;;;;5093182;28;20055;-63
2022/09/02 08:37:28;;;;;;;2.90;0.77;;;22.50;59.20;;;;;;5094784;28;20080;-63
2022/09/02 08:39:53;;;;;;;1.00;0.52;;;22.50;59.20;;;;;;5078154;28;20105;-63
2022/09/02 08:42:26;;;;;;;1.80;0.50;;;22.50;59.20;;;;;;5074364;28;20484;-63
2022/09/02 08:44:54;;;;;;;2.60;0.50;;;22.50;59.20;;;;;;5074318;28;20492;-63
2022/09/02 08:47:22;;;;;;;2.33;0.80;;;22.60;59.90;;;;;;5072544;28;20041;-63
2022/09/02 08:49:50;;;;;;;2.45;0.73;;;22.60;59.20;;;;;;5072754;28;20055;-64
2022/09/02 08:52:28;;;;;;;2.10;0.60;;;22.60;59.20;;;;;;5074336;28;20126;-64
2022/09/02 08:54:54;;;;;;;1.65;0.65;;;22.70;59.30;;;;;;5073263;28;20076;-64
2022/09/02 08:57:24;;;;;;;1.35;0.60;;;22.60;59.10;;;;;;5072739;28;20099;-64
2022/09/02 08:59:49;;;;;;;1.45;0.70;;;22.70;59.00;;;;;;5073425;28;20048;-64
2022/09/02 09:02:25;;;;;;;1.10;0.50;;;22.70;59.00;;;;;;5077653;28;20040;-63
2022/09/02 09:05:26;;;;;;;2.00;0.75;;;22.70;59.00;;;;;;5092811;28;20484;-64
2022/09/02 09:08:01;;;;;;;0.98;0.50;;;22.70;58.90;;;;;;5092546;28;20048;-63
2022/09/02 09:10:30;;;;;;;1.73;0.77;;;22.80;59.00;;;;;;5093790;28;20047;-63
2022/09/02 09:13:16;;;;;;;;;;;22.80;59.00;;;;;;5094701;28;20133;-63
2022/09/02 09:15:52;;;;;;;2.25;0.60;;;22.70;59.00;;;;;;5091846;28;19924;-63
2022/09/02 09:18:29;;;;;;;2.35;0.70;;;22.80;58.90;;;;;;5093838;28;20036;-62
2022/09/02 09:20:55;;;;;;;2.90;0.50;;;22.80;58.90;;;;;;5092320;28;20554;-62
2022/09/02 09:23:32;;;;;;;2.00;0.57;;;22.80;58.80;;;;;;5093593;28;20040;-62
2022/09/02 09:26:11;;;;;;;0.88;0.50;;;22.80;58.80;;;;;;5094393;28;20052;-62
2022/09/02 09:28:45;;;;;;;2.13;0.63;;;22.80;58.80;;;;;;5092686;28;20121;-62
2022/09/02 09:31:21;;;;;;;1.15;0.50;;;22.80;58.70;;;;;;5093224;28;20048;-63
2022/09/02 09:33:57;;;;;;;2.78;0.70;;;22.90;58.80;;;;;;5093810;28;20056;-63
2022/09/02 09:36:38;;;;;;;2.78;0.60;;;22.90;58.60;;;;;;5092996;28;20063;-63
2022/09/02 09:39:23;;;;;;;1.40;0.60;;;22.90;58.50;;;;;;5093886;28;20052;-63
2022/09/02 09:41:53;;;;;;;2.83;0.60;;;22.90;58.60;;;;;;5092498;28;20487;-63
2022/09/02 09:44:38;;;;;;;1.60;0.60;;;22.90;58.80;;;;;;5092023;28;20036;-63
2022/09/02 09:47:09;;;;;;;1.08;0.52;;;23.00;59.00;;;;;;5093485;28;20051;-62
2022/09/02 09:49:36;;;;;;;3.95;0.80;;;22.90;58.80;;;;;;5092730;28;20045;-62
2022/09/02 09:52:01;;;;;;;2.45;0.90;;;22.90;58.80;;;;;;5091981;28;20395;-63
2022/09/02 09:54:27;;;;;;;1.77;1.08;;;23.00;58.80;;;;;;5093324;28;20476;-62
2022/09/02 09:56:53;;;;;;;3.15;0.52;;;23.00;58.90;;;;;;5092646;28;20086;-62
2022/09/02 09:59:41;;;;;;;1.48;0.65;;;23.00;58.80;;;;;;5092258;28;20040;-63
2022/09/02 10:02:21;;;;;;;2.47;0.60;;;23.00;58.80;;;;;;5092392;28;20529;-62
2022/09/02 10:04:47;;;;;;;1.58;0.45;;;23.00;58.70;;;;;;5090687;28;20044;-62
2022/09/02 10:07:12;;;;;;;2.95;0.68;;;23.00;58.60;;;;;;5093413;28;20130;-62
2022/09/02 10:09:38;;;;;;;0.77;0.50;;;23.00;58.70;;;;;;5092644;28;20054;-62
2022/09/02 10:12:05;;;;;;;8.38;0.70;;;23.10;58.70;;;;;;5091242;28;20040;-62
2022/09/02 10:14:43;;;;;;;1.30;0.63;;;23.10;58.70;;;;;;5093046;28;20048;-62
2022/09/02 10:17:11;;;;;;;2.88;0.70;;;23.00;58.60;;;;;;5091132;28;20048;-63
2022/09/02 10:20:08;;;;;;;1.20;0.50;;;23.10;58.50;;;;;;5092483;28;20048;-62
2022/09/02 10:22:39;;;;;;;2.17;0.60;;;23.10;57.90;;;;;;5092396;28;20044;-62
2022/09/02 10:25:17;;;;;;;2.78;0.50;;;23.10;58.10;;;;;;5090418;28;20056;-62
2022/09/02 10:28:02;;;;;;;1.65;0.60;;;23.10;58.10;;;;;;5091110;28;20048;-63
2022/09/02 10:30:30;;;;;;;1.00;0.50;;;23.10;58.00;;;;;;5092175;28;20055;-63
2022/09/02 10:33:20;;;;;;;2.22;0.65;;;23.10;57.90;;;;;;5090938;28;20051;-63
2022/09/02 10:35:51;;;;;;;4.95;0.82;;;23.10;57.60;;;;;;5091985;28;20119;-63
2022/09/02 10:38:37;;;;;;;2.42;0.68;;;23.10;57.70;;;;;;5090780;28;20479;-63
2022/09/02 10:41:32;;;;;;;1.60;0.65;;;23.20;57.70;;;;;;5091548;28;20036;-63
2022/09/02 10:43:57;;;;;;;3.20;0.70;;;23.10;57.50;;;;;;5091769;28;20067;-63
2022/09/02 10:46:23;;;;;;;2.63;0.68;;;23.20;57.50;;;;;;5091813;28;20391;-63
2022/09/02 10:48:52;;;;;;;3.85;0.70;;;23.20;57.30;;;;;;5091812;28;20384;-63
2022/09/02 10:51:20;;;;;;;;;;;23.20;57.30;;;;;;5092616;28;20044;-63
2022/09/02 10:54:10;;;;;;;2.47;0.68;;;23.20;57.50;;;;;;5091995;28;19920;-67
2022/09/02 10:57:06;;;;;;;2.55;0.70;;;23.20;57.20;;;;;;5092447;28;20124;-60
2022/09/02 10:59:48;;;;;;;3.28;1.08;;;23.20;57.00;;;;;;5064926;28;20048;-61
2022/09/02 11:02:19;;;;;;;2.75;0.65;;;23.20;57.10;;;;;;5091476;28;20123;-61
2022/09/02 11:05:06;;;;;;;4.30;0.77;;;23.20;56.80;;;;;;5091592;28;20036;-62
2022/09/02 11:07:39;;;;;;;3.40;0.68;;;23.20;56.50;;;;;;5091335;28;20464;-62
2022/09/02 11:10:14;;;;;;;1.55;0.82;;;23.20;56.40;;;;;;5091593;28;20044;-62
2022/09/02 11:13:06;;;;;;;1.75;0.60;;;23.20;57.00;;;;;;5093668;28;20494;-62
2022/09/02 11:16:01;;;;;;;2.80;0.80;;;23.20;56.90;;;;;;5093571;28;20051;-62
2022/09/02 11:18:42;;;;;;;3.47;0.80;;;23.20;55.90;;;;;;5095003;28;20047;-62
2022/09/02 11:21:27;;;;;;;2.17;0.63;;;23.20;55.70;;;;;;5094663;28;20036;-62
2022/09/02 11:24:12;;;;;;;2.97;0.80;;;23.20;55.50;;;;;;5095342;28;20044;-62
2022/09/02 11:26:45;;;;;;;7.65;0.65;;;23.20;55.40;;;;;;5094631;28;20486;-61
2022/09/02 11:29:16;;;;;;;3.63;0.70;;;23.20;55.50;;;;;;5094514;28;20089;-62
2022/09/02 11:31:47;;;;;;;3.78;0.90;;;23.20;55.50;;;;;;5095124;28;20048;-61
2022/09/02 11:34:20;;;;;;;7.63;0.88;;;23.20;55.40;;;;;;5094635;28;20376;-61
2022/09/02 11:36:45;;;;;;;6.53;1.23;;;23.20;55.50;;;;;;5095742;28;20040;-61
2022/09/02 11:39:32;;;;;;;8.50;1.25;;;23.20;55.60;;;;;;5078272;28;20032;-62
2022/09/02 11:42:21;;;;;;;4.23;1.37;;;23.20;55.50;;;;;;5095036;28;20055;-62
2022/09/02 11:44:55;;;;;;;3.97;1.00;;;23.20;55.60;;;;;;5094711;28;20502;-62
2022/09/02 11:47:41;;;;;;;4.80;0.90;;;23.20;55.50;;;;;;5094676;28;20055;-62
2022/09/02 11:50:27;;;;;;;10.93;1.15;;;23.20;55.60;;;;;;5078751;28;20512;-62
2022/09/02 11:53:11;;;;;;;8.23;1.42;;;23.20;55.80;;;;;;5094991;28;20044;-62
2022/09/02 11:55:48;;;;;;;9.70;1.20;;;23.20;55.80;;;;;;5094888;28;20096;-62
2022/09/02 11:58:51;;;;;;;9.98;1.30;;;23.20;55.80;;;;;;5095458;28;20044;-62
2022/09/02 12:01:34;;;;;;;5.05;1.17;;;23.20;56.00;;;;;;5032998;28;20045;-62
2022/09/02 12:04:18;;;;;;;7.93;1.23;;;23.20;56.00;;;;;;5087918;28;20056;-62
2022/09/02 12:07:05;;;;;;;10.95;1.35;;;23.20;56.10;;;;;;5095659;28;20123;-62
2022/09/02 12:09:55;;;;;;;14.48;1.42;;;23.20;56.10;;;;;;5094681;28;20104;-62
2022/09/02 12:12:35;;;;;;;6.22;1.08;;;23.20;56.20;;;;;;5094105;28;20055;-62
2022/09/02 12:15:04;;;;;;;10.70;1.20;;;23.20;56.30;;;;;;5094253;28;20051;-62
2022/09/02 12:17:48;;;;;;;12.82;1.40;;;23.20;56.40;;;;;;5094473;28;20044;-68
2022/09/02 12:20:40;;;;;;;5.55;1.50;;;23.20;56.40;;;;;;5095055;28;20553;-62
2022/09/02 12:23:09;;;;;;;11.07;1.45;;;23.20;56.50;;;;;;5094806;28;20050;-66
2022/09/02 12:25:42;;;;;;;8.35;1.55;;;23.20;56.40;;;;;;5092849;28;20059;-62
2022/09/02 12:28:09;;;;;;;7.78;1.40;;;23.20;56.30;;;;;;5090113;28;20089;-61
2022/09/02 12:31:00;;;;;;;6.28;1.17;;;23.20;56.50;;;;;;5083247;28;20043;-61
2022/09/02 12:33:32;;;;;;;8.50;1.50;;;23.10;56.50;;;;;;5076550;28;20044;-60
2022/09/02 12:35:58;;;;;;;7.07;1.00;;;23.10;56.60;;;;;;5083666;28;20076;-61
2022/09/02 12:38:40;;;;;;;9.73;1.58;;;23.20;56.60;;;;;;5087111;28;20074;-62
2022/09/02 12:41:07;;;;;;;8.23;1.30;;;23.10;56.70;;;;;;5093502;28;20043;-62
2022/09/02 12:43:43;;;;;;;8.82;1.50;;;23.10;56.50;;;;;;5093246;28;20044;-62
2022/09/02 12:46:43;;;;;;;8.05;1.35;;;23.20;56.50;;;;;;5094287;28;20079;-63
2022/09/02 12:49:32;;;;;;;5.38;1.40;;;23.20;56.40;;;;;;5094751;28;20539;-63
2022/09/02 12:52:02;;;;;;;5.25;1.30;;;23.20;56.40;;;;;;5092053;28;20458;-62
2022/09/02 12:54:39;;;;;;;5.70;1.50;;;23.20;56.40;;;;;;5094194;28;20082;-62
2022/09/02 12:57:05;;;;;;;11.38;1.88;;;23.20;56.30;;;;;;5094666;28;20125;-62
2022/09/02 12:59:38;;;;;;;5.32;1.60;;;23.20;56.20;;;;;;5093606;28;20082;-62
2022/09/02 13:02:19;;;;;;;7.75;1.75;;;23.20;56.30;;;;;;5076915;28;20170;-62
2022/09/02 13:04:54;;;;;;;8.70;1.42;;;23.20;56.20;;;;;;5093343;28;20051;-62
2022/09/02 13:07:46;;;;;;;6.13;1.20;;;23.20;56.20;;;;;;5093109;28;20105;-62